sensor_id;sensor_type;location;lat;lon;timestamp;P1;durP1;ratioP1;P2;durP2;ratioP2
14153;SDS011;7157;53.144;7.570;2023-08-30T00:00:52;7.50;;;3.95;;
14153;SDS011;7157;53.144;7.570;2023-08-30T00:10:55;8.73;;;3.78;;
14153;SDS011;7157;53.144;7.570;2023-08-30T00:21:01;8.10;;;3.88;;
14153;SDS011;7157;53.144;7.570;2023-08-30T00:31:04;8.18;;;4.22;;
14153;SDS011;7157;53.144;7.570;2023-08-30T00:41:08;7.90;;;4.25;;
14153;SDS011;7157;53.144;7.570;2023-08-30T00:51:11;7.82;;;4.60;;
14153;SDS011;7157;53.144;7.570;2023-08-30T01:01:16;8.23;;;4.57;;
14153;SDS011;7157;53.144;7.570;2023-08-30T01:11:21;10.93;;;4.80;;
14153;SDS011;7157;53.144;7.570;2023-08-30T01:21:32;8.75;;;5.35;;
14153;SDS011;7157;53.144;7.570;2023-08-30T01:31:47;8.60;;;5.43;;
14153;SDS011;7157;53.144;7.570;2023-08-30T01:41:51;8.43;;;5.25;;
14153;SDS011;7157;53.144;7.570;2023-08-30T01:52:01;11.00;;;5.95;;
14153;SDS011;7157;53.144;7.570;2023-08-30T02:02:04;11.18;;;6.63;;
14153;SDS011;7157;53.144;7.570;2023-08-30T02:12:09;11.52;;;6.45;;
14153;SDS011;7157;53.144;7.570;2023-08-30T02:22:16;10.77;;;6.85;;
14153;SDS011;7157;53.144;7.570;2023-08-30T02:32:21;11.68;;;7.00;;
14153;SDS011;7157;53.144;7.570;2023-08-30T02:42:23;12.00;;;7.20;;
14153;SDS011;7157;53.144;7.570;2023-08-30T02:52:28;11.43;;;7.05;;
14153;SDS011;7157;53.144;7.570;2023-08-30T03:02:31;11.88;;;7.60;;
14153;SDS011;7157;53.144;7.570;2023-08-30T03:12:35;13.13;;;8.43;;
14153;SDS011;7157;53.144;7.570;2023-08-30T03:22:38;14.63;;;8.73;;
14153;SDS011;7157;53.144;7.570;2023-08-30T03:32:42;16.63;;;9.68;;
14153;SDS011;7157;53.144;7.570;2023-08-30T03:42:45;15.30;;;9.32;;
14153;SDS011;7157;53.144;7.570;2023-08-30T03:52:49;15.45;;;9.48;;
14153;SDS011;7157;53.144;7.570;2023-08-30T04:02:52;18.25;;;10.35;;
14153;SDS011;7157;53.144;7.570;2023-08-30T04:12:56;15.13;;;9.50;;
14153;SDS011;7157;53.144;7.570;2023-08-30T04:22:59;15.07;;;9.52;;
14153;SDS011;7157;53.144;7.570;2023-08-30T04:33:04;18.00;;;10.25;;
14153;SDS011;7157;53.144;7.570;2023-08-30T04:43:07;21.08;;;11.02;;
14153;SDS011;7157;53.144;7.570;2023-08-30T04:53:11;16.67;;;10.82;;
14153;SDS011;7157;53.144;7.570;2023-08-30T05:03:14;16.05;;;10.35;;
14153;SDS011;7157;53.144;7.570;2023-08-30T05:13:18;17.70;;;9.80;;
14153;SDS011;7157;53.144;7.570;2023-08-30T05:23:21;17.95;;;9.57;;
14153;SDS011;7157;53.144;7.570;2023-08-30T05:33:25;17.40;;;9.27;;
14153;SDS011;7157;53.144;7.570;2023-08-30T05:43:28;15.32;;;8.95;;
14153;SDS011;7157;53.144;7.570;2023-08-30T05:53:32;16.67;;;9.13;;
14153;SDS011;7157;53.144;7.570;2023-08-30T06:03:35;14.48;;;9.13;;
14153;SDS011;7157;53.144;7.570;2023-08-30T06:13:39;17.45;;;9.35;;
14153;SDS011;7157;53.144;7.570;2023-08-30T06:23:41;15.30;;;8.95;;
14153;SDS011;7157;53.144;7.570;2023-08-30T06:33:45;17.67;;;9.98;;
14153;SDS011;7157;53.144;7.570;2023-08-30T06:43:49;18.55;;;8.40;;
14153;SDS011;7157;53.144;7.570;2023-08-30T06:53:53;15.77;;;8.07;;
14153;SDS011;7157;53.144;7.570;2023-08-30T07:04:01;15.80;;;8.27;;
14153;SDS011;7157;53.144;7.570;2023-08-30T07:14:06;15.88;;;8.32;;
14153;SDS011;7157;53.144;7.570;2023-08-30T07:24:08;14.20;;;8.27;;
14153;SDS011;7157;53.144;7.570;2023-08-30T07:34:13;14.88;;;8.63;;
14153;SDS011;7157;53.144;7.570;2023-08-30T07:44:16;13.40;;;8.20;;
14153;SDS011;7157;53.144;7.570;2023-08-30T07:54:22;13.20;;;7.97;;
14153;SDS011;7157;53.144;7.570;2023-08-30T08:04:25;15.00;;;7.55;;
14153;SDS011;7157;53.144;7.570;2023-08-30T08:14:29;13.07;;;7.72;;
14153;SDS011;7157;53.144;7.570;2023-08-30T08:24:32;15.15;;;7.50;;
14153;SDS011;7157;53.144;7.570;2023-08-30T08:34:36;13.48;;;7.15;;
14153;SDS011;7157;53.144;7.570;2023-08-30T08:44:39;12.57;;;6.50;;
14153;SDS011;7157;53.144;7.570;2023-08-30T08:54:45;11.73;;;6.60;;
14153;SDS011;7157;53.144;7.570;2023-08-30T09:04:48;9.80;;;6.05;;
14153;SDS011;7157;53.144;7.570;2023-08-30T09:14:55;14.48;;;6.70;;
14153;SDS011;7157;53.144;7.570;2023-08-30T09:24:59;11.73;;;7.23;;
14153;SDS011;7157;53.144;7.570;2023-08-30T09:35:05;12.48;;;6.75;;
14153;SDS011;7157;53.144;7.570;2023-08-30T09:45:17;9.68;;;5.95;;
14153;SDS011;7157;53.144;7.570;2023-08-30T09:55:21;11.68;;;6.72;;
14153;SDS011;7157;53.144;7.570;2023-08-30T10:05:26;9.90;;;6.00;;
14153;SDS011;7157;53.144;7.570;2023-08-30T10:15:30;11.20;;;5.70;;
14153;SDS011;7157;53.144;7.570;2023-08-30T10:25:37;11.43;;;4.97;;
14153;SDS011;7157;53.144;7.570;2023-08-30T10:35:47;9.57;;;5.50;;
14153;SDS011;7157;53.144;7.570;2023-08-30T10:45:57;10.23;;;5.45;;
14153;SDS011;7157;53.144;7.570;2023-08-30T10:56:12;9.52;;;5.57;;
14153;SDS011;7157;53.144;7.570;2023-08-30T11:06:17;11.05;;;5.75;;
14153;SDS011;7157;53.144;7.570;2023-08-30T11:16:24;11.85;;;5.90;;
14153;SDS011;7157;53.144;7.570;2023-08-30T11:26:27;16.67;;;6.10;;
14153;SDS011;7157;53.144;7.570;2023-08-30T11:36:32;13.57;;;6.00;;
14153;SDS011;7157;53.144;7.570;2023-08-30T11:46:37;11.95;;;6.43;;
14153;SDS011;7157;53.144;7.570;2023-08-30T11:56:42;15.50;;;6.43;;
14153;SDS011;7157;53.144;7.570;2023-08-30T12:06:50;10.65;;;6.65;;
14153;SDS011;7157;53.144;7.570;2023-08-30T12:16:55;12.10;;;7.95;;
14153;SDS011;7157;53.144;7.570;2023-08-30T12:27:03;14.45;;;8.20;;
14153;SDS011;7157;53.144;7.570;2023-08-30T12:37:07;14.73;;;8.30;;
14153;SDS011;7157;53.144;7.570;2023-08-30T12:47:09;13.18;;;8.27;;
14153;SDS011;7157;53.144;7.570;2023-08-30T12:57:16;11.77;;;5.90;;
14153;SDS011;7157;53.144;7.570;2023-08-30T13:07:19;15.18;;;7.22;;
14153;SDS011;7157;53.144;7.570;2023-08-30T13:17:23;12.30;;;7.47;;
14153;SDS011;7157;53.144;7.570;2023-08-30T13:27:25;17.08;;;9.40;;
14153;SDS011;7157;53.144;7.570;2023-08-30T13:37:30;15.55;;;10.02;;
14153;SDS011;7157;53.144;7.570;2023-08-30T13:47:33;18.00;;;10.15;;
14153;SDS011;7157;53.144;7.570;2023-08-30T13:57:37;18.60;;;11.52;;
14153;SDS011;7157;53.144;7.570;2023-08-30T14:07:40;19.30;;;12.40;;
14153;SDS011;7157;53.144;7.570;2023-08-30T14:17:44;21.77;;;14.23;;
14153;SDS011;7157;53.144;7.570;2023-08-30T14:27:47;21.88;;;12.70;;
14153;SDS011;7157;53.144;7.570;2023-08-30T14:37:51;18.23;;;11.25;;
14153;SDS011;7157;53.144;7.570;2023-08-30T14:47:54;20.48;;;11.50;;
14153;SDS011;7157;53.144;7.570;2023-08-30T14:57:58;12.55;;;8.63;;
14153;SDS011;7157;53.144;7.570;2023-08-30T15:08:01;11.75;;;7.78;;
14153;SDS011;7157;53.144;7.570;2023-08-30T15:18:05;12.15;;;7.53;;
14153;SDS011;7157;53.144;7.570;2023-08-30T15:28:08;12.77;;;7.90;;
14153;SDS011;7157;53.144;7.570;2023-08-30T15:38:12;14.50;;;8.68;;
14153;SDS011;7157;53.144;7.570;2023-08-30T15:48:15;15.20;;;9.45;;
14153;SDS011;7157;53.144;7.570;2023-08-30T15:58:19;13.70;;;8.93;;
14153;SDS011;7157;53.144;7.570;2023-08-30T16:08:22;11.00;;;7.40;;
14153;SDS011;7157;53.144;7.570;2023-08-30T16:18:30;2.83;;;1.10;;
14153;SDS011;7157;53.144;7.570;2023-08-30T16:28:33;3.15;;;1.30;;
14153;SDS011;7157;53.144;7.570;2023-08-30T16:38:39;2.50;;;1.25;;
14153;SDS011;7157;53.144;7.570;2023-08-30T16:48:42;4.28;;;2.03;;
14153;SDS011;7157;53.144;7.570;2023-08-30T16:58:46;3.72;;;1.92;;
14153;SDS011;7157;53.144;7.570;2023-08-30T17:08:48;3.47;;;1.75;;
14153;SDS011;7157;53.144;7.570;2023-08-30T17:18:53;3.42;;;1.80;;
14153;SDS011;7157;53.144;7.570;2023-08-30T17:28:55;4.05;;;2.40;;
14153;SDS011;7157;53.144;7.570;2023-08-30T17:38:59;6.90;;;3.08;;
14153;SDS011;7157;53.144;7.570;2023-08-30T17:49:02;5.63;;;2.97;;
14153;SDS011;7157;53.144;7.570;2023-08-30T17:59:06;6.13;;;3.15;;
14153;SDS011;7157;53.144;7.570;2023-08-30T18:09:09;6.13;;;3.17;;
14153;SDS011;7157;53.144;7.570;2023-08-30T18:19:17;7.22;;;3.38;;
14153;SDS011;7157;53.144;7.570;2023-08-30T18:29:20;5.95;;;3.25;;
14153;SDS011;7157;53.144;7.570;2023-08-30T18:39:26;5.88;;;3.50;;
14153;SDS011;7157;53.144;7.570;2023-08-30T18:49:29;6.82;;;4.22;;
14153;SDS011;7157;53.144;7.570;2023-08-30T18:59:33;5.85;;;3.85;;
14153;SDS011;7157;53.144;7.570;2023-08-30T19:09:36;7.43;;;3.78;;
14153;SDS011;7157;53.144;7.570;2023-08-30T19:19:40;6.57;;;4.00;;
14153;SDS011;7157;53.144;7.570;2023-08-30T19:29:43;5.20;;;3.75;;
14153;SDS011;7157;53.144;7.570;2023-08-30T19:39:49;9.40;;;4.32;;
14153;SDS011;7157;53.144;7.570;2023-08-30T19:49:51;7.35;;;4.95;;
14153;SDS011;7157;53.144;7.570;2023-08-30T19:59:55;10.32;;;4.97;;
14153;SDS011;7157;53.144;7.570;2023-08-30T20:09:58;8.45;;;4.38;;
14153;SDS011;7157;53.144;7.570;2023-08-30T20:20:02;5.70;;;2.88;;
14153;SDS011;7157;53.144;7.570;2023-08-30T20:30:08;6.47;;;2.15;;
14153;SDS011;7157;53.144;7.570;2023-08-30T20:40:13;4.90;;;1.90;;
14153;SDS011;7157;53.144;7.570;2023-08-30T20:50:16;3.50;;;1.30;;
14153;SDS011;7157;53.144;7.570;2023-08-30T21:00:20;4.38;;;1.33;;
14153;SDS011;7157;53.144;7.570;2023-08-30T21:10:23;3.65;;;1.02;;
14153;SDS011;7157;53.144;7.570;2023-08-30T21:20:27;4.25;;;1.20;;
14153;SDS011;7157;53.144;7.570;2023-08-30T21:30:30;5.78;;;1.70;;
14153;SDS011;7157;53.144;7.570;2023-08-30T21:40:35;7.55;;;1.63;;
14153;SDS011;7157;53.144;7.570;2023-08-30T21:50:38;4.97;;;2.00;;
14153;SDS011;7157;53.144;7.570;2023-08-30T22:00:43;4.07;;;1.80;;
14153;SDS011;7157;53.144;7.570;2023-08-30T22:10:45;6.47;;;2.03;;
14153;SDS011;7157;53.144;7.570;2023-08-30T22:20:49;5.43;;;2.20;;
14153;SDS011;7157;53.144;7.570;2023-08-30T22:30:52;12.43;;;2.38;;
14153;SDS011;7157;53.144;7.570;2023-08-30T22:40:57;5.72;;;1.98;;
14153;SDS011;7157;53.144;7.570;2023-08-30T22:51:00;4.28;;;2.00;;
14153;SDS011;7157;53.144;7.570;2023-08-30T23:01:06;6.80;;;1.95;;
14153;SDS011;7157;53.144;7.570;2023-08-30T23:11:10;3.13;;;1.60;;
14153;SDS011;7157;53.144;7.570;2023-08-30T23:21:14;6.18;;;1.77;;
14153;SDS011;7157;53.144;7.570;2023-08-30T23:31:17;4.75;;;1.60;;
14153;SDS011;7157;53.144;7.570;2023-08-30T23:41:21;4.35;;;1.50;;
14153;SDS011;7157;53.144;7.570;2023-08-30T23:51:24;3.58;;;1.52;;
